Time;durP1;ratioP1;P1;durP2;ratioP2;P2;SDS_P1;SDS_P2;PMS_P1;PMS_P2;Temp;Humidity;BMP_temperature;BMP_pressure;BME280_temperature;BME280_humidity;BME280_pressure;Samples;Min_cycle;Max_cycle;Signal;HPM_P1;HPM_P2
2023/08/28 00:01:39;;;;;;;0.93;0.80;;;15.90;99.90;;;;;;5040320;28;20184;-74
2023/08/28 00:04:05;;;;;;;0.95;0.80;;;15.90;99.90;;;;;;5062768;28;20199;-73
2023/08/28 00:06:33;;;;;;;0.82;0.70;;;15.90;99.90;;;;;;5079695;28;20252;-74
2023/08/28 00:09:01;;;;;;;1.35;0.70;;;15.80;99.90;;;;;;5073529;28;20177;-73
2023/08/28 00:11:27;;;;;;;0.88;0.68;;;15.80;99.90;;;;;;5059554;28;20336;-74
2023/08/28 00:13:52;;;;;;;0.80;0.60;;;15.80;99.90;;;;;;5060368;28;20267;-72
2023/08/28 00:16:19;;;;;;;1.77;0.90;;;15.80;99.90;;;;;;5077015;28;20204;-74
2023/08/28 00:18:44;;;;;;;1.50;0.80;;;15.70;99.90;;;;;;5059361;28;20183;-73
2023/08/28 00:21:10;;;;;;;1.05;0.82;;;15.70;99.90;;;;;;5055595;28;20173;-74
2023/08/28 00:23:36;;;;;;;0.70;0.70;;;15.70;99.90;;;;;;5055864;28;20165;-74
2023/08/28 00:26:04;;;;;;;1.25;0.73;;;15.70;99.90;;;;;;5053516;28;20183;-75
2023/08/28 00:28:29;;;;;;;1.23;0.63;;;15.60;99.90;;;;;;5059212;28;20538;-73
2023/08/28 00:30:57;;;;;;;0.68;0.68;;;15.60;99.90;;;;;;5058672;28;20211;-75
2023/08/28 00:33:25;;;;;;;1.65;0.93;;;15.60;99.90;;;;;;5057938;28;20193;-74
2023/08/28 00:35:51;;;;;;;2.28;0.80;;;15.60;99.90;;;;;;5073146;28;20207;-73
2023/08/28 00:38:19;;;;;;;0.60;0.60;;;15.60;99.90;;;;;;5055544;28;20172;-74
2023/08/28 00:40:47;;;;;;;1.38;0.82;;;15.60;99.90;;;;;;5047461;28;20280;-74
2023/08/28 00:43:12;;;;;;;2.25;0.77;;;15.60;99.90;;;;;;5059315;28;20187;-74
2023/08/28 00:45:42;;;;;;;1.88;0.70;;;15.50;99.90;;;;;;5058832;28;20185;-74
2023/08/28 00:48:14;;;;;;;1.40;0.80;;;15.50;99.90;;;;;;5059266;28;20365;-70
2023/08/28 00:50:40;;;;;;;1.42;0.80;;;15.50;99.90;;;;;;5064191;28;20178;-74
2023/08/28 00:53:08;;;;;;;0.98;0.70;;;15.50;99.90;;;;;;5055344;28;20180;-74
2023/08/28 00:55:37;;;;;;;1.58;0.73;;;15.40;99.90;;;;;;5074099;28;20207;-74
2023/08/28 00:58:03;;;;;;;1.17;0.80;;;15.40;99.90;;;;;;5042015;28;20181;-74
2023/08/28 01:00:29;;;;;;;0.95;0.80;;;15.40;99.90;;;;;;5058447;28;20216;-74
2023/08/28 01:02:57;;;;;;;0.70;0.70;;;15.40;99.90;;;;;;5058373;28;20172;-74
2023/08/28 01:05:37;;;;;;;0.85;0.77;;;15.40;99.90;;;;;;5058366;28;20188;-75
2023/08/28 01:08:30;;;;;;;0.70;0.70;;;15.40;99.90;;;;;;5058418;28;20196;-75
2023/08/28 01:11:10;;;;;;;2.88;1.10;;;15.40;99.90;;;;;;5058726;28;20385;-75
2023/08/28 01:13:49;;;;;;;2.03;0.77;;;15.40;99.90;;;;;;5075148;28;20258;-72
2023/08/28 01:16:25;;;;;;;1.02;0.70;;;15.30;99.90;;;;;;5058674;28;20273;-74
2023/08/28 01:18:56;;;;;;;0.95;0.70;;;15.30;99.90;;;;;;5058329;28;20176;-75
2023/08/28 01:21:23;;;;;;;0.93;0.80;;;15.30;99.90;;;;;;5058118;28;20165;-73
2023/08/28 01:23:57;;;;;;;0.73;0.65;;;15.30;99.90;;;;;;5058406;28;20245;-75
2023/08/28 01:26:24;;;;;;;0.80;0.77;;;15.30;99.90;;;;;;5057767;28;20200;-75
2023/08/28 01:28:50;;;;;;;1.15;0.85;;;15.30;99.90;;;;;;5058526;28;20173;-73
2023/08/28 01:31:18;;;;;;;0.63;0.63;;;15.20;99.90;;;;;;5053794;28;20185;-73
2023/08/28 01:33:44;;;;;;;2.25;0.90;;;15.30;99.90;;;;;;5058027;28;20234;-74
2023/08/28 01:36:10;;;;;;;0.70;0.70;;;15.20;99.90;;;;;;5057775;28;20215;-75
2023/08/28 01:38:56;;;;;;;0.73;0.73;;;15.20;99.90;;;;;;5054386;28;20173;-71
2023/08/28 01:41:25;;;;;;;1.27;0.70;;;15.20;99.90;;;;;;5055264;28;20180;-74
2023/08/28 01:43:59;;;;;;;1.23;0.70;;;15.20;99.90;;;;;;5074599;28;20204;-74
2023/08/28 01:46:25;;;;;;;0.80;0.70;;;15.20;99.90;;;;;;5059719;28;20201;-74
2023/08/28 01:48:53;;;;;;;0.90;0.77;;;15.10;99.90;;;;;;5064350;28;20325;-75
2023/08/28 01:51:20;;;;;;;1.10;0.88;;;15.10;99.90;;;;;;5054645;28;20204;-73
2023/08/28 01:53:46;;;;;;;0.82;0.70;;;15.10;99.90;;;;;;5069099;28;20204;-74
2023/08/28 01:56:21;;;;;;;0.77;0.65;;;15.10;99.90;;;;;;5054587;28;20200;-73
2023/08/28 01:58:51;;;;;;;1.70;0.70;;;15.10;99.90;;;;;;5057666;28;20179;-74
2023/08/28 02:01:17;;;;;;;0.73;0.60;;;15.00;99.90;;;;;;5065543;28;20188;-75
2023/08/28 02:03:44;;;;;;;0.85;0.70;;;15.00;99.90;;;;;;5064028;28;20412;-74
2023/08/28 02:06:10;;;;;;;1.05;0.60;;;15.00;99.90;;;;;;5066209;28;20321;-75
2023/08/28 02:08:39;;;;;;;1.92;0.82;;;15.00;99.90;;;;;;5056674;28;20177;-74
2023/08/28 02:11:05;;;;;;;0.80;0.80;;;15.00;99.90;;;;;;5048752;28;20188;-74
2023/08/28 02:13:31;;;;;;;0.75;0.50;;;15.00;99.90;;;;;;5047737;28;20243;-74
2023/08/28 02:15:56;;;;;;;1.13;0.70;;;14.90;99.90;;;;;;5057896;28;20224;-74
2023/08/28 02:18:24;;;;;;;1.38;0.80;;;14.90;99.90;;;;;;5054043;28;20185;-74
2023/08/28 02:20:55;;;;;;;0.60;0.60;;;14.90;99.90;;;;;;5063299;28;20179;-75
2023/08/28 02:23:20;;;;;;;1.17;0.75;;;14.90;99.90;;;;;;5058523;28;20190;-74
2023/08/28 02:25:49;;;;;;;1.38;0.90;;;14.80;99.90;;;;;;5061907;28;20287;-73
2023/08/28 02:28:18;;;;;;;1.15;1.02;;;14.80;99.90;;;;;;5060542;28;20173;-74
2023/08/28 02:30:46;;;;;;;2.45;0.85;;;14.80;99.90;;;;;;5043249;28;20269;-74
2023/08/28 02:33:13;;;;;;;1.13;0.75;;;14.80;99.90;;;;;;5037495;28;20208;-74
2023/08/28 02:35:39;;;;;;;1.08;0.80;;;14.80;99.90;;;;;;5049925;28;20235;-75
2023/08/28 02:38:08;;;;;;;1.98;0.80;;;14.80;99.90;;;;;;5057536;28;20177;-75
2023/08/28 02:40:40;;;;;;;0.88;0.70;;;14.80;99.90;;;;;;5057699;28;20176;-74
2023/08/28 02:43:07;;;;;;;1.27;0.80;;;14.80;99.90;;;;;;5057621;28;20227;-75
2023/08/28 02:45:38;;;;;;;1.52;0.80;;;14.80;99.90;;;;;;5057286;28;20192;-75
2023/08/28 02:48:04;;;;;;;2.05;0.90;;;14.80;99.90;;;;;;5057454;28;20215;-71
2023/08/28 02:50:31;;;;;;;1.58;0.80;;;14.80;99.90;;;;;;5071616;28;20211;-74
2023/08/28 02:52:59;;;;;;;1.48;1.00;;;14.90;99.90;;;;;;5061103;28;20201;-74
2023/08/28 02:55:25;;;;;;;2.22;0.90;;;14.90;99.90;;;;;;5057833;28;20197;-75
2023/08/28 02:57:56;;;;;;;1.02;0.82;;;14.90;99.90;;;;;;5058384;28;20196;-74
2023/08/28 03:00:23;;;;;;;1.63;0.75;;;15.00;99.90;;;;;;5060865;28;20239;-74
2023/08/28 03:02:56;;;;;;;1.23;0.88;;;15.00;99.90;;;;;;5060722;28;20204;-75
2023/08/28 03:05:21;;;;;;;1.05;0.90;;;15.00;99.90;;;;;;5056873;28;20197;-75
2023/08/28 03:07:49;;;;;;;1.15;0.70;;;15.00;99.90;;;;;;5070705;28;20187;-74
2023/08/28 03:10:20;;;;;;;1.48;0.80;;;15.00;99.90;;;;;;5063301;28;20181;-74
2023/08/28 03:12:45;;;;;;;1.30;0.88;;;15.00;99.90;;;;;;5065419;28;20193;-75
2023/08/28 03:15:11;;;;;;;0.80;0.68;;;15.10;99.90;;;;;;5060819;28;20215;-74
2023/08/28 03:17:37;;;;;;;1.05;0.80;;;15.00;99.90;;;;;;5058647;28;20189;-75
2023/08/28 03:20:09;;;;;;;1.00;0.80;;;15.10;99.90;;;;;;5048968;28;20264;-74
2023/08/28 03:22:34;;;;;;;0.95;0.70;;;15.00;99.90;;;;;;5051831;28;20201;-75
2023/08/28 03:25:00;;;;;;;0.90;0.70;;;15.00;99.90;;;;;;5060982;28;20205;-74
2023/08/28 03:27:26;;;;;;;0.82;0.80;;;15.00;99.90;;;;;;5060750;28;20176;-75
2023/08/28 03:29:51;;;;;;;0.85;0.70;;;15.00;99.90;;;;;;5056949;28;20272;-74
2023/08/28 03:32:19;;;;;;;1.08;0.85;;;15.00;99.90;;;;;;5064014;28;20200;-75
2023/08/28 03:34:45;;;;;;;0.80;0.80;;;14.90;99.90;;;;;;5072135;28;20266;-74
2023/08/28 03:37:13;;;;;;;1.00;0.60;;;14.90;99.90;;;;;;5053362;28;20174;-74
2023/08/28 03:39:39;;;;;;;1.13;0.82;;;14.90;99.90;;;;;;5051269;28;20259;-74
2023/08/28 03:42:05;;;;;;;1.33;0.95;;;14.90;99.90;;;;;;5061789;28;20255;-74
2023/08/28 03:44:32;;;;;;;1.42;0.90;;;14.90;99.90;;;;;;5047780;28;20286;-74
2023/08/28 03:47:00;;;;;;;0.90;0.80;;;14.90;99.90;;;;;;5046553;28;20169;-75
2023/08/28 03:49:28;;;;;;;2.25;1.15;;;14.90;99.90;;;;;;5060180;28;20230;-74
2023/08/28 03:51:55;;;;;;;1.48;1.02;;;14.90;99.90;;;;;;5075438;28;20200;-71
2023/08/28 03:54:21;;;;;;;1.10;1.00;;;14.90;99.90;;;;;;5054766;28;20204;-75
2023/08/28 03:56:46;;;;;;;1.38;1.02;;;14.90;99.90;;;;;;5046755;28;20212;-74
2023/08/28 03:59:14;;;;;;;1.15;0.90;;;15.00;99.90;;;;;;5050985;28;20201;-74
2023/08/28 04:01:43;;;;;;;1.00;0.80;;;15.00;99.90;;;;;;5055215;28;20184;-74
2023/08/28 04:04:08;;;;;;;2.17;1.00;;;15.00;99.90;;;;;;5054231;28;20358;-75
2023/08/28 04:06:36;;;;;;;1.85;1.27;;;15.00;99.90;;;;;;5075153;28;20180;-73
2023/08/28 04:09:02;;;;;;;1.23;1.02;;;15.10;99.90;;;;;;5059514;28;20607;-74
2023/08/28 04:11:28;;;;;;;1.55;1.15;;;15.10;99.90;;;;;;5059326;28;20215;-75
2023/08/28 04:13:53;;;;;;;1.40;1.30;;;15.10;99.90;;;;;;5060115;28;20267;-74
2023/08/28 04:16:23;;;;;;;1.17;1.08;;;15.10;99.90;;;;;;5059052;28;20192;-75
2023/08/28 04:18:56;;;;;;;1.10;1.00;;;15.10;99.90;;;;;;5059309;28;20224;-74
2023/08/28 04:21:24;;;;;;;1.10;0.90;;;15.10;99.90;;;;;;5059638;28;20193;-72
2023/08/28 04:23:52;;;;;;;1.48;1.08;;;15.10;99.90;;;;;;5059917;28;20188;-74
2023/08/28 04:26:20;;;;;;;1.25;1.02;;;15.00;99.90;;;;;;5059298;28;20244;-74
2023/08/28 04:28:47;;;;;;;1.80;0.88;;;15.00;99.90;;;;;;5059509;28;20255;-74
2023/08/28 04:31:20;;;;;;;2.85;0.98;;;15.10;99.90;;;;;;5059210;28;20292;-75
2023/08/28 04:33:48;;;;;;;1.08;0.80;;;15.10;99.90;;;;;;5071154;28;20204;-74
2023/08/28 04:36:14;;;;;;;1.60;1.40;;;15.00;99.90;;;;;;5058189;28;20197;-77
2023/08/28 04:38:42;;;;;;;2.08;1.50;;;15.10;99.90;;;;;;5059473;28;20228;-76
2023/08/28 04:41:10;;;;;;;1.80;1.38;;;15.10;99.90;;;;;;5058801;28;20225;-76
2023/08/28 04:43:38;;;;;;;2.85;1.48;;;15.10;99.90;;;;;;5058710;28;20222;-76
2023/08/28 04:46:05;;;;;;;1.92;1.30;;;15.10;99.90;;;;;;5059263;28;20257;-77
2023/08/28 04:48:33;;;;;;;2.47;1.23;;;15.10;99.90;;;;;;5057910;28;20188;-76
2023/08/28 04:51:01;;;;;;;2.17;1.20;;;15.10;99.90;;;;;;5059301;28;20291;-75
2023/08/28 04:53:27;;;;;;;1.27;1.10;;;15.10;99.90;;;;;;5058309;28;20386;-75
2023/08/28 04:55:57;;;;;;;1.75;1.10;;;15.10;99.90;;;;;;5057901;28;20196;-74
2023/08/28 04:58:25;;;;;;;1.73;0.90;;;15.20;99.90;;;;;;5068349;28;20192;-75
2023/08/28 05:00:50;;;;;;;2.08;0.90;;;15.20;99.90;;;;;;5058101;28;20172;-73
2023/08/28 05:03:18;;;;;;;1.10;0.90;;;15.20;99.90;;;;;;5058633;28;20226;-74
2023/08/28 05:05:49;;;;;;;2.35;1.05;;;15.20;99.90;;;;;;5057931;28;20279;-76
2023/08/28 05:08:15;;;;;;;2.95;1.00;;;15.20;99.90;;;;;;5058688;28;20168;-75
2023/08/28 05:10:45;;;;;;;2.03;0.90;;;15.20;99.90;;;;;;5058148;28;20304;-75
2023/08/28 05:13:13;;;;;;;2.00;1.20;;;15.20;99.90;;;;;;5057872;28;20165;-73
2023/08/28 05:15:41;;;;;;;1.67;0.88;;;15.20;99.90;;;;;;5054401;28;20201;-73
2023/08/28 05:18:06;;;;;;;1.40;1.20;;;15.20;99.90;;;;;;5038416;28;20177;-75
2023/08/28 05:20:34;;;;;;;3.63;1.10;;;15.20;99.90;;;;;;5038646;28;20268;-75
2023/08/28 05:23:00;;;;;;;2.55;1.00;;;15.20;99.90;;;;;;5056159;28;20232;-75
2023/08/28 05:25:26;;;;;;;1.33;1.02;;;15.20;99.90;;;;;;5057918;28;20204;-75
2023/08/28 05:27:53;;;;;;;1.90;0.98;;;15.20;99.90;;;;;;5057817;28;20176;-75
2023/08/28 05:30:21;;;;;;;1.10;0.77;;;15.20;99.90;;;;;;5058118;28;20201;-75
2023/08/28 05:32:47;;;;;;;2.53;1.15;;;15.30;99.90;;;;;;5061247;28;20175;-75
2023/08/28 05:35:17;;;;;;;1.58;1.02;;;15.20;99.90;;;;;;5060851;28;20216;-74
2023/08/28 05:37:43;;;;;;;2.42;1.20;;;15.30;99.90;;;;;;5057613;28;20178;-75
2023/08/28 05:40:13;;;;;;;2.33;1.00;;;15.30;99.90;;;;;;5057644;28;20176;-74
2023/08/28 05:42:39;;;;;;;1.15;0.98;;;15.30;99.90;;;;;;5057536;28;20169;-75
2023/08/28 05:45:10;;;;;;;1.73;1.13;;;15.30;99.90;;;;;;5057679;28;20179;-72
2023/08/28 05:47:40;;;;;;;1.63;1.08;;;15.30;99.90;;;;;;5056813;28;20447;-75
2023/08/28 05:50:06;;;;;;;5.53;1.30;;;15.30;99.90;;;;;;5057494;28;20181;-76
2023/08/28 05:52:32;;;;;;;1.13;0.98;;;15.20;99.90;;;;;;5056929;28;20180;-76
2023/08/28 05:54:59;;;;;;;1.17;1.00;;;15.20;99.90;;;;;;5057268;28;20204;-75
2023/08/28 05:57:27;;;;;;;2.20;1.10;;;15.20;99.90;;;;;;5057604;28;20412;-74
2023/08/28 05:59:55;;;;;;;3.15;1.10;;;15.20;99.90;;;;;;5063874;28;20224;-75
2023/08/28 06:02:21;;;;;;;1.80;1.00;;;15.20;99.90;;;;;;5056856;28;20227;-75
2023/08/28 06:04:52;;;;;;;1.45;0.98;;;15.20;99.90;;;;;;5057196;28;20180;-75
2023/08/28 06:07:20;;;;;;;1.30;1.00;;;15.20;99.90;;;;;;5050607;28;20188;-75
2023/08/28 06:09:48;;;;;;;1.45;1.10;;;15.20;99.90;;;;;;5042292;28;20181;-77
2023/08/28 06:12:18;;;;;;;1.08;0.95;;;15.20;99.90;;;;;;5046920;28;20205;-74
2023/08/28 06:14:46;;;;;;;1.92;1.20;;;15.20;99.90;;;;;;5057813;28;20232;-72
2023/08/28 06:17:12;;;;;;;1.45;1.10;;;15.20;99.90;;;;;;5057546;28;20192;-73
2023/08/28 06:19:42;;;;;;;2.13;0.90;;;15.20;99.90;;;;;;5068808;28;20176;-70
2023/08/28 06:22:08;;;;;;;1.17;1.00;;;15.20;99.90;;;;;;5064587;28;20179;-75
2023/08/28 06:24:33;;;;;;;1.88;1.23;;;15.30;99.90;;;;;;5059225;28;20173;-75
2023/08/28 06:27:04;;;;;;;3.42;1.13;;;15.30;99.90;;;;;;5061287;28;20179;-75
2023/08/28 06:29:29;;;;;;;1.42;1.25;;;15.30;99.90;;;;;;5061786;28;20222;-74
2023/08/28 06:31:57;;;;;;;1.20;1.10;;;15.30;99.90;;;;;;5061899;28;20168;-74
2023/08/28 06:34:23;;;;;;;3.03;1.30;;;15.40;99.90;;;;;;5061273;28;20169;-75
2023/08/28 06:36:49;;;;;;;3.47;1.40;;;15.40;99.90;;;;;;5061446;28;20207;-76
2023/08/28 06:39:15;;;;;;;1.77;1.30;;;15.50;99.90;;;;;;5060368;28;20177;-76
2023/08/28 06:41:45;;;;;;;2.35;1.20;;;15.50;99.90;;;;;;5060871;28;20230;-75
2023/08/28 06:44:11;;;;;;;1.45;1.25;;;15.60;99.90;;;;;;5061334;28;20268;-71
2023/08/28 06:46:40;;;;;;;2.58;1.20;;;15.60;99.90;;;;;;5060369;28;20278;-73
2023/08/28 06:49:08;;;;;;;1.58;1.35;;;15.70;99.90;;;;;;5055448;28;20284;-75
2023/08/28 06:51:33;;;;;;;1.30;1.20;;;15.70;99.90;;;;;;5041854;28;20208;-75
2023/08/28 06:54:02;;;;;;;1.60;1.20;;;15.80;99.90;;;;;;5040335;28;20426;-74
2023/08/28 06:56:30;;;;;;;1.70;1.25;;;15.90;99.90;;;;;;5053877;28;20253;-74
2023/08/28 06:58:56;;;;;;;3.13;1.27;;;15.90;99.90;;;;;;5061970;28;20173;-61
2023/08/28 07:01:24;;;;;;;1.73;1.10;;;15.90;99.90;;;;;;5060883;28;20175;-75
2023/08/28 07:03:49;;;;;;;2.25;1.30;;;16.00;99.90;;;;;;5060580;28;20176;-75
2023/08/28 07:06:19;;;;;;;2.17;1.30;;;16.00;99.90;;;;;;5058279;28;20212;-75
2023/08/28 07:08:45;;;;;;;2.33;1.60;;;16.10;99.90;;;;;;5061265;28;20244;-73
2023/08/28 07:11:15;;;;;;;1.92;1.30;;;16.10;99.90;;;;;;5060994;28;20211;-74
2023/08/28 07:13:43;;;;;;;1.70;1.40;;;16.10;99.90;;;;;;5060813;28;20189;-74
2023/08/28 07:16:09;;;;;;;2.00;1.45;;;16.20;99.90;;;;;;5060591;28;20220;-74
2023/08/28 07:18:35;;;;;;;2.42;1.40;;;16.20;99.90;;;;;;5063720;28;20204;-74
2023/08/28 07:21:00;;;;;;;2.35;1.20;;;16.30;99.90;;;;;;5065295;28;20200;-74
2023/08/28 07:23:26;;;;;;;1.40;1.30;;;16.40;99.90;;;;;;5061550;28;20179;-74
2023/08/28 07:25:54;;;;;;;2.50;1.42;;;16.40;99.90;;;;;;5060377;28;20267;-76
2023/08/28 07:28:20;;;;;;;1.38;1.10;;;16.40;99.90;;;;;;5059857;28;20187;-73
2023/08/28 07:30:48;;;;;;;1.88;1.40;;;16.50;99.90;;;;;;5045515;28;20197;-75
2023/08/28 07:33:15;;;;;;;1.50;1.35;;;16.50;99.90;;;;;;5044752;28;20180;-75
2023/08/28 07:35:46;;;;;;;2.10;1.23;;;16.50;99.90;;;;;;5039691;28;20197;-75
2023/08/28 07:38:13;;;;;;;2.13;1.85;;;16.60;99.90;;;;;;5053869;28;20191;-76
2023/08/28 07:40:39;;;;;;;4.15;2.33;;;16.60;99.90;;;;;;5059610;28;20180;-75
2023/08/28 07:43:06;;;;;;;2.20;1.50;;;16.60;99.90;;;;;;5056014;28;20193;-74
2023/08/28 07:45:34;;;;;;;2.53;1.60;;;16.60;99.90;;;;;;5046763;28;20176;-70
2023/08/28 07:48:02;;;;;;;2.00;1.40;;;16.70;99.90;;;;;;5059390;28;20207;-75
2023/08/28 07:50:30;;;;;;;2.05;1.30;;;16.70;99.90;;;;;;5059523;28;20512;-74
2023/08/28 07:53:00;;;;;;;3.20;1.45;;;16.80;99.90;;;;;;5059594;28;20177;-75
2023/08/28 07:55:26;;;;;;;3.05;1.50;;;16.80;99.90;;;;;;5059054;28;20209;-76
2023/08/28 07:57:52;;;;;;;2.35;1.45;;;16.90;99.90;;;;;;5059581;28;20173;-75
2023/08/28 08:00:20;;;;;;;10.18;2.90;;;17.00;99.90;;;;;;5058426;28;20261;-76
2023/08/28 08:02:47;;;;;;;43.85;9.60;;;17.00;99.90;;;;;;5059304;28;20173;-73
2023/08/28 08:05:17;;;;;;;33.97;8.65;;;17.10;99.90;;;;;;5059074;28;20200;-75
2023/08/28 08:07:44;;;;;;;10.75;4.00;;;17.20;99.90;;;;;;5059141;28;20196;-75
2023/08/28 08:10:11;;;;;;;4.57;2.20;;;17.30;99.90;;;;;;5058953;28;20187;-74
2023/08/28 08:12:40;;;;;;;5.28;1.85;;;17.50;99.90;;;;;;5059078;28;20235;-75
2023/08/28 08:15:10;;;;;;;3.15;1.52;;;17.50;99.90;;;;;;5060878;28;20220;-76
2023/08/28 08:17:38;;;;;;;2.83;1.63;;;17.70;99.90;;;;;;5058921;28;20176;-76
2023/08/28 08:20:10;;;;;;;3.13;1.48;;;17.70;99.90;;;;;;5059152;28;20191;-71
2023/08/28 08:22:46;;;;;;;2.70;1.50;;;17.80;99.90;;;;;;5057188;28;20176;-74
2023/08/28 08:25:12;;;;;;;3.38;1.60;;;17.90;99.90;;;;;;5059093;28;20208;-74
2023/08/28 08:27:44;;;;;;;3.45;2.15;;;18.00;99.90;;;;;;5054942;28;20177;-74
2023/08/28 08:30:13;;;;;;;2.40;1.60;;;18.10;99.90;;;;;;5039015;28;20195;-76
2023/08/28 08:32:39;;;;;;;6.15;2.20;;;18.20;99.90;;;;;;5055078;28;20172;-73
2023/08/28 08:35:07;;;;;;;3.22;1.70;;;18.30;99.90;;;;;;5058694;28;20204;-76
2023/08/28 08:37:33;;;;;;;1.75;1.30;;;18.40;99.90;;;;;;5058299;28;20208;-73
2023/08/28 08:40:01;;;;;;;2.85;1.60;;;18.50;99.90;;;;;;5058410;28;20169;-77
2023/08/28 08:42:32;;;;;;;4.53;1.92;;;18.60;99.90;;;;;;5074679;28;20197;-76
2023/08/28 08:44:58;;;;;;;3.03;1.95;;;18.70;99.90;;;;;;5058106;28;20173;-76
2023/08/28 08:47:24;;;;;;;2.90;2.10;;;18.80;99.90;;;;;;5057549;28;20180;-76
2023/08/28 08:49:56;;;;;;;3.53;1.92;;;18.90;99.90;;;;;;5058272;28;20227;-77
2023/08/28 08:52:25;;;;;;;3.67;2.13;;;18.90;99.90;;;;;;5058917;28;20196;-75
2023/08/28 08:54:56;;;;;;;2.58;1.90;;;19.00;99.90;;;;;;5057965;28;20200;-76
2023/08/28 08:57:43;;;;;;;2.15;1.92;;;19.00;99.90;;;;;;5058679;28;20164;-76
2023/08/28 09:00:17;;;;;;;2.20;1.92;;;19.00;99.90;;;;;;5054931;28;20443;-76
2023/08/28 09:02:43;;;;;;;3.00;1.98;;;19.00;99.90;;;;;;5058268;28;20331;-77
2023/08/28 09:05:10;;;;;;;3.85;1.90;;;19.10;99.90;;;;;;5058477;28;20543;-76
2023/08/28 09:07:38;;;;;;;2.72;2.03;;;19.10;99.90;;;;;;5054685;28;20201;-76
2023/08/28 09:10:04;;;;;;;2.53;2.33;;;19.10;99.90;;;;;;5058260;28;20183;-76
2023/08/28 09:12:30;;;;;;;11.45;3.38;;;19.20;99.90;;;;;;5057831;28;20265;-76
2023/08/28 09:14:57;;;;;;;5.57;2.35;;;19.20;99.90;;;;;;5058208;28;20212;-74
2023/08/28 09:17:26;;;;;;;4.28;2.58;;;19.20;99.90;;;;;;5058049;28;20181;-75
2023/08/28 09:19:53;;;;;;;4.47;2.50;;;19.20;99.90;;;;;;5058119;28;20196;-77
2023/08/28 09:22:25;;;;;;;5.78;2.58;;;19.30;99.90;;;;;;5058145;28;20197;-78
2023/08/28 09:24:52;;;;;;;3.95;2.63;;;19.40;99.90;;;;;;5058307;28;20196;-76
2023/08/28 09:27:20;;;;;;;6.45;2.88;;;19.40;99.90;;;;;;5054804;28;20181;-75
2023/08/28 09:29:46;;;;;;;4.85;3.03;;;19.50;99.90;;;;;;5055006;28;20197;-77
2023/08/28 09:32:14;;;;;;;5.38;2.95;;;19.60;99.90;;;;;;5053693;28;20216;-76
2023/08/28 09:34:41;;;;;;;5.65;2.70;;;19.70;99.90;;;;;;5038091;28;20264;-77
2023/08/28 09:37:13;;;;;;;3.85;2.88;;;19.80;99.90;;;;;;5056288;28;20211;-78
2023/08/28 09:39:40;;;;;;;5.47;3.00;;;19.90;99.90;;;;;;5057822;28;20176;-77
2023/08/28 09:42:07;;;;;;;5.22;3.10;;;20.00;99.90;;;;;;5057550;28;20172;-77
2023/08/28 09:44:37;;;;;;;4.88;3.33;;;20.10;99.90;;;;;;5058011;28;20198;-77
2023/08/28 09:47:06;;;;;;;7.45;3.10;;;20.10;99.90;;;;;;5054251;28;20237;-78
2023/08/28 09:49:42;;;;;;;4.82;3.13;;;20.20;99.90;;;;;;5052285;28;20234;-77
2023/08/28 09:52:11;;;;;;;12.88;3.70;;;20.30;99.90;;;;;;5038045;28;20364;-74
2023/08/28 09:54:36;;;;;;;4.20;3.80;;;20.40;99.90;;;;;;5045616;28;20176;-74
2023/08/28 09:57:16;;;;;;;3.60;3.28;;;20.40;99.90;;;;;;5057749;28;20206;-77
2023/08/28 09:59:41;;;;;;;4.05;3.60;;;20.50;99.90;;;;;;5064833;28;20249;-74
2023/08/28 10:02:11;;;;;;;4.20;3.72;;;20.50;99.90;;;;;;5078316;28;20204;-74
2023/08/28 10:04:37;;;;;;;5.60;3.15;;;20.60;99.90;;;;;;5061968;28;20223;-73
2023/08/28 10:07:04;;;;;;;4.10;3.38;;;20.70;99.90;;;;;;5061528;28;20172;-66
2023/08/28 10:09:34;;;;;;;4.10;3.55;;;20.70;99.90;;;;;;5041542;28;20469;-75
2023/08/28 10:12:03;;;;;;;4.35;3.72;;;20.70;99.90;;;;;;5051502;28;20243;-75
2023/08/28 10:14:32;;;;;;;3.70;3.35;;;20.80;99.90;;;;;;5074268;28;20259;-73
2023/08/28 10:17:04;;;;;;;4.45;3.60;;;20.80;99.90;;;;;;5081371;28;20239;-75
2023/08/28 10:19:38;;;;;;;4.40;3.42;;;20.80;99.90;;;;;;5081586;28;20168;-75
2023/08/28 10:22:07;;;;;;;4.65;3.63;;;20.80;99.90;;;;;;5081826;28;20174;-70
2023/08/28 10:24:35;;;;;;;5.45;3.67;;;20.80;99.90;;;;;;5081506;28;20295;-75
2023/08/28 10:27:01;;;;;;;3.47;3.08;;;20.90;99.90;;;;;;5074319;28;20173;-73
2023/08/28 10:29:30;;;;;;;4.45;3.80;;;20.90;99.90;;;;;;5060975;28;20176;-74
2023/08/28 10:31:59;;;;;;;4.30;3.67;;;20.90;99.90;;;;;;5060759;28;20200;-75
2023/08/28 10:34:26;;;;;;;4.25;3.38;;;20.90;99.90;;;;;;5061124;28;20188;-75
2023/08/28 10:36:56;;;;;;;4.20;3.60;;;21.00;99.90;;;;;;5061376;28;20249;-73
2023/08/28 10:39:25;;;;;;;7.35;4.03;;;21.00;99.90;;;;;;5057656;28;20272;-77
2023/08/28 10:41:51;;;;;;;4.60;3.95;;;21.10;99.90;;;;;;5057675;28;20321;-73
2023/08/28 10:44:17;;;;;;;4.18;3.55;;;21.10;99.90;;;;;;5060578;28;20188;-75
2023/08/28 10:46:49;;;;;;;4.57;4.18;;;21.20;99.90;;;;;;5057502;28;20174;-75
2023/08/28 10:49:16;;;;;;;5.85;4.13;;;21.40;99.90;;;;;;5040971;28;20262;-76
2023/08/28 10:51:43;;;;;;;4.45;3.97;;;21.50;99.90;;;;;;5048463;28;20326;-74
2023/08/28 10:54:09;;;;;;;6.07;4.10;;;21.70;99.90;;;;;;5061307;28;20199;-75
2023/08/28 10:56:39;;;;;;;3.90;3.53;;;21.90;99.90;;;;;;5060507;28;20188;-76
2023/08/28 10:59:23;;;;;;;4.28;3.88;;;22.10;99.90;;;;;;5061414;28;20200;-76
2023/08/28 11:01:59;;;;;;;8.50;4.28;;;22.30;99.90;;;;;;5071551;28;20169;-75
2023/08/28 11:04:36;;;;;;;3.92;3.53;;;22.50;99.90;;;;;;5059693;28;20179;-75
2023/08/28 11:07:04;;;;;;;4.25;3.58;;;22.70;99.90;;;;;;5059945;28;20206;-73
2023/08/28 11:09:32;;;;;;;4.35;3.15;;;22.70;99.90;;;;;;5059595;28;20175;-73
2023/08/28 11:12:01;;;;;;;3.70;3.15;;;22.70;99.90;;;;;;5060485;28;20264;-70
2023/08/28 11:14:39;;;;;;;3.63;3.30;;;22.70;99.90;;;;;;5060327;28;20235;-73
2023/08/28 11:17:15;;;;;;;2.88;2.65;;;22.80;99.90;;;;;;5060669;28;20187;-76
2023/08/28 11:19:59;;;;;;;3.35;2.20;;;22.80;99.90;;;;;;5060040;28;20227;-75
2023/08/28 11:22:33;;;;;;;2.92;2.70;;;22.80;99.90;;;;;;5060577;28;20180;-75
2023/08/28 11:24:59;;;;;;;4.22;2.42;;;22.90;99.90;;;;;;5060387;28;20194;-76
2023/08/28 11:27:34;;;;;;;2.17;1.88;;;23.00;99.90;;;;;;5060321;28;20196;-75
2023/08/28 11:30:07;;;;;;;2.17;1.70;;;23.00;99.90;;;;;;5060300;28;20168;-75
2023/08/28 11:32:34;;;;;;;3.03;1.85;;;23.10;99.90;;;;;;5059943;28;20160;-76
2023/08/28 11:35:04;;;;;;;2.75;1.90;;;23.30;99.90;;;;;;5047192;28;20205;-76
2023/08/28 11:37:35;;;;;;;2.08;1.70;;;23.30;99.90;;;;;;5045578;28;20242;-77
2023/08/28 11:40:06;;;;;;;2.60;1.90;;;23.40;99.90;;;;;;5060025;28;20253;-76
2023/08/28 11:42:35;;;;;;;2.55;1.90;;;23.40;99.90;;;;;;5059838;28;20172;-74
2023/08/28 11:45:00;;;;;;;3.28;2.05;;;23.40;99.90;;;;;;5059971;28;20287;-75
2023/08/28 11:47:28;;;;;;;2.58;1.80;;;23.40;99.90;;;;;;5058932;28;20267;-78
2023/08/28 11:49:57;;;;;;;2.85;1.60;;;23.40;99.90;;;;;;5060261;28;20379;-78
2023/08/28 11:52:23;;;;;;;2.15;1.50;;;23.40;99.90;;;;;;5059260;28;20172;-74
2023/08/28 11:54:50;;;;;;;2.85;2.03;;;23.40;99.90;;;;;;5059552;28;20211;-74
2023/08/28 11:57:18;;;;;;;2.08;1.80;;;23.30;99.90;;;;;;5059975;28;20173;-74
2023/08/28 11:59:48;;;;;;;4.03;1.83;;;23.30;99.90;;;;;;5059442;28;20213;-73
2023/08/28 12:02:15;;;;;;;2.13;1.60;;;23.30;99.90;;;;;;5054366;28;20203;-75
2023/08/28 12:04:41;;;;;;;2.67;1.50;;;23.20;99.90;;;;;;5059024;28;20416;-70
2023/08/28 12:07:26;;;;;;;2.30;1.80;;;23.20;99.90;;;;;;5059552;28;20177;-76
2023/08/28 12:09:55;;;;;;;2.55;1.60;;;23.10;99.90;;;;;;5059133;28;20187;-75
2023/08/28 12:12:22;;;;;;;2.33;1.65;;;23.10;99.90;;;;;;5055531;28;20184;-73
2023/08/28 12:14:49;;;;;;;1.60;1.42;;;23.10;99.90;;;;;;5066576;28;20197;-74
2023/08/28 12:17:21;;;;;;;2.35;1.40;;;23.00;99.90;;;;;;5059051;28;20181;-74
2023/08/28 12:19:50;;;;;;;2.03;1.67;;;23.00;99.90;;;;;;5059217;28;20334;-76
2023/08/28 12:22:21;;;;;;;2.25;1.50;;;23.00;99.90;;;;;;5054633;28;20203;-72
2023/08/28 12:24:52;;;;;;;1.95;1.42;;;23.10;99.90;;;;;;5055805;28;20260;-75
2023/08/28 12:27:25;;;;;;;1.60;1.38;;;23.10;99.90;;;;;;5059336;28;20230;-73
2023/08/28 12:29:56;;;;;;;2.22;1.50;;;23.10;99.90;;;;;;5058794;28;20192;-76
2023/08/28 12:32:22;;;;;;;2.92;1.80;;;23.10;99.90;;;;;;5059078;28;20192;-76
2023/08/28 12:34:48;;;;;;;3.83;1.67;;;23.10;99.90;;;;;;5058947;28;20172;-76
2023/08/28 12:37:15;;;;;;;1.63;1.20;;;23.10;99.90;;;;;;5058289;28;20177;-76
2023/08/28 12:39:52;;;;;;;2.00;1.60;;;23.10;99.90;;;;;;5059067;28;20187;-76
2023/08/28 12:42:20;;;;;;;2.63;1.30;;;23.10;99.90;;;;;;5059206;28;20236;-74
2023/08/28 12:44:48;;;;;;;1.88;1.27;;;23.10;99.90;;;;;;5058375;28;20225;-75
2023/08/28 12:47:17;;;;;;;2.05;1.40;;;23.10;99.90;;;;;;5055365;28;20231;-75
2023/08/28 12:49:43;;;;;;;1.60;1.10;;;23.10;99.90;;;;;;5054437;28;20296;-73
2023/08/28 12:52:14;;;;;;;1.98;1.23;;;23.10;99.90;;;;;;5058399;28;20176;-75